Time;durP1;ratioP1;P1;durP2;ratioP2;P2;SDS_P1;SDS_P2;PMS_P1;PMS_P2;Temp;Humidity;BMP_temperature;BMP_pressure;BME280_temperature;BME280_humidity;BME280_pressure;Samples;Min_cycle;Max_cycle;Signal;HPM_P1;HPM_P2
2022/11/01 00:00:27;;;;;;;10.90;4.27;;;14.60;49.90;;;;;;10504536;28;20651;-71
2022/11/01 00:05:32;;;;;;;4.90;4.60;;;14.60;50.00;;;;;;10499158;28;20232;-71
2022/11/01 00:10:35;;;;;;;4.90;4.50;;;14.50;50.90;;;;;;10502195;28;20257;-71
2022/11/01 00:15:38;;;;;;;4.57;3.90;;;14.50;51.10;;;;;;10509021;28;20227;-71
2022/11/01 00:20:43;;;;;;;8.77;5.27;;;14.50;51.30;;;;;;10504499;28;20231;-71
2022/11/01 00:25:46;;;;;;;11.90;4.13;;;14.60;51.60;;;;;;10502827;28;20219;-71
2022/11/01 00:30:52;;;;;;;5.00;4.70;;;14.60;51.30;;;;;;10502330;28;20273;-71
2022/11/01 00:36:00;;;;;;;15.17;4.90;;;14.70;51.70;;;;;;10505694;28;20228;-71
2022/11/01 00:41:04;;;;;;;16.93;4.60;;;14.70;51.70;;;;;;10501519;28;20231;-71
2022/11/01 00:46:08;;;;;;;15.87;4.13;;;14.70;51.20;;;;;;10501328;28;20764;-71
2022/11/01 00:51:13;;;;;;;20.70;4.63;;;14.80;51.00;;;;;;10503522;28;20235;-71
2022/11/01 00:56:16;;;;;;;8.67;4.43;;;14.80;50.90;;;;;;10504893;28;20767;-71
2022/11/01 01:01:19;;;;;;;4.60;4.20;;;14.70;50.50;;;;;;10500434;28;20240;-71
2022/11/01 01:06:24;;;;;;;29.13;4.83;;;14.60;50.70;;;;;;10505184;28;20693;-71
2022/11/01 01:11:27;;;;;;;4.30;4.00;;;14.60;51.00;;;;;;10500688;28;20235;-71
2022/11/01 01:16:30;;;;;;;5.53;4.83;;;14.60;50.90;;;;;;10502101;28;20228;-71
2022/11/01 01:21:35;;;;;;;4.07;3.87;;;14.50;51.10;;;;;;10500150;28;20229;-71
2022/11/01 01:26:38;;;;;;;9.40;4.50;;;14.50;51.50;;;;;;10503640;28;20297;-71
2022/11/01 01:31:41;;;;;;;4.77;4.40;;;14.50;51.30;;;;;;10514082;28;20227;-71
2022/11/01 01:36:47;;;;;;;10.33;4.53;;;14.60;51.50;;;;;;10512552;28;20224;-71
2022/11/01 01:41:59;;;;;;;12.33;5.13;;;14.60;51.80;;;;;;10514479;28;20281;-71
2022/11/01 01:47:02;;;;;;;9.70;4.63;;;14.60;51.30;;;;;;10509805;28;20232;-71
2022/11/01 01:52:07;;;;;;;4.83;4.53;;;14.60;50.90;;;;;;10514442;28;20232;-71
2022/11/01 01:57:11;;;;;;;31.47;5.37;;;14.60;51.00;;;;;;10508835;28;20257;-71
2022/11/01 02:02:14;;;;;;;50.33;4.77;;;14.60;50.70;;;;;;10507551;28;20720;-71
2022/11/01 02:07:19;;;;;;;7.27;3.80;;;14.50;50.40;;;;;;10515100;28;20239;-71
2022/11/01 02:12:24;;;;;;;24.77;4.27;;;14.40;50.50;;;;;;10509140;28;20258;-71
2022/11/01 02:17:36;;;;;;;4.10;3.80;;;14.30;50.50;;;;;;10508089;28;20261;-71
2022/11/01 02:23:08;;;;;;;6.17;4.00;;;14.30;50.40;;;;;;10509453;28;20274;-71
2022/11/01 02:28:29;;;;;;;17.40;4.30;;;14.30;50.60;;;;;;10510276;28;20229;-71
2022/11/01 02:33:40;;;;;;;3.77;3.53;;;14.20;50.80;;;;;;10503207;28;20331;-71
2022/11/01 02:38:48;;;;;;;5.60;4.07;;;14.10;50.90;;;;;;10504913;28;20249;-71
2022/11/01 02:43:57;;;;;;;4.20;3.90;;;14.10;51.10;;;;;;10506268;28;20238;-71
2022/11/01 02:49:03;;;;;;;17.77;3.77;;;14.10;51.30;;;;;;10512711;28;20224;-71
2022/11/01 02:54:07;;;;;;;5.53;3.77;;;14.10;51.10;;;;;;10507555;28;20228;-71
2022/11/01 02:59:18;;;;;;;13.50;4.10;;;14.20;51.60;;;;;;10509560;28;20228;-71
2022/11/01 03:04:22;;;;;;;6.10;4.10;;;14.20;51.20;;;;;;10505895;28;20290;-71
2022/11/01 03:09:27;;;;;;;6.83;3.77;;;14.20;51.20;;;;;;10510418;28;20228;-71
2022/11/01 03:14:37;;;;;;;4.00;3.70;;;14.20;51.00;;;;;;10507883;28;20223;-71
2022/11/01 03:19:46;;;;;;;4.20;3.90;;;14.20;51.00;;;;;;10509254;28;21132;-71
2022/11/01 03:24:54;;;;;;;3.80;3.53;;;14.30;51.20;;;;;;10508451;28;20250;-71
2022/11/01 03:30:01;;;;;;;3.80;3.50;;;14.30;51.20;;;;;;10509163;28;20238;-71
2022/11/01 03:35:10;;;;;;;4.30;3.90;;;14.30;51.10;;;;;;10506842;28;20232;-71
2022/11/01 03:40:17;;;;;;;4.30;4.00;;;14.30;51.10;;;;;;10507207;28;20310;-71
2022/11/01 03:45:24;;;;;;;8.83;4.00;;;14.30;50.90;;;;;;10505461;28;20232;-71
2022/11/01 03:50:29;;;;;;;20.13;4.37;;;14.20;51.00;;;;;;10507319;28;20236;-71
2022/11/01 03:55:32;;;;;;;12.87;4.37;;;14.20;50.80;;;;;;10505409;28;20241;-71
2022/11/01 04:00:38;;;;;;;8.57;3.63;;;14.30;50.90;;;;;;10509688;28;20247;-71
2022/11/01 04:05:43;;;;;;;12.37;3.53;;;14.20;51.00;;;;;;10501447;28;20642;-71
2022/11/01 04:10:46;;;;;;;20.07;4.57;;;14.20;50.90;;;;;;10501711;28;20228;-71
2022/11/01 04:21:14;;;;;;;10.67;4.33;;;14.20;50.60;;;;;;10506797;28;20689;-71
2022/11/01 04:26:19;;;;;;;14.03;5.20;;;14.10;51.00;;;;;;10503354;28;20289;-71
2022/11/01 04:31:23;;;;;;;29.20;5.30;;;14.00;51.10;;;;;;10505396;28;20236;-71
2022/11/01 04:36:27;;;;;;;4.90;4.60;;;14.00;50.90;;;;;;10504987;28;20215;-71
2022/11/01 04:41:30;;;;;;;7.93;4.60;;;14.00;51.20;;;;;;10502076;28;20272;-71
2022/11/01 04:46:33;;;;;;;26.33;5.40;;;14.00;51.10;;;;;;10503477;28;20243;-71
2022/11/01 04:51:39;;;;;;;22.67;5.40;;;13.90;50.80;;;;;;10509810;28;20580;-71
2022/11/01 04:56:43;;;;;;;5.13;4.70;;;13.80;51.00;;;;;;10502606;28;20234;-71
2022/11/01 05:01:46;;;;;;;46.27;5.33;;;13.80;51.10;;;;;;10506254;28;20226;-71
2022/11/01 05:06:51;;;;;;;11.67;4.67;;;13.70;50.60;;;;;;10512644;28;20420;-71
2022/11/01 05:11:54;;;;;;;32.30;4.80;;;13.60;50.80;;;;;;10515633;28;20362;-71
2022/11/01 05:16:57;;;;;;;16.53;3.87;;;13.50;50.70;;;;;;10512602;28;20246;-71
2022/11/01 05:22:02;;;;;;;4.80;3.70;;;13.50;50.70;;;;;;10508156;28;20246;-71
2022/11/01 05:27:05;;;;;;;34.80;4.20;;;13.40;51.20;;;;;;10506187;28;20232;-71
2022/11/01 05:32:08;;;;;;;24.53;3.80;;;13.30;50.80;;;;;;10512374;28;20228;-71
2022/11/01 05:37:14;;;;;;;46.33;4.80;;;13.30;50.50;;;;;;10511456;28;20728;-71
2022/11/01 05:42:17;;;;;;;39.57;4.03;;;13.20;50.50;;;;;;10513455;28;20236;-71
2022/11/01 05:47:20;;;;;;;4.03;3.33;;;13.20;50.70;;;;;;10511970;28;20945;-71
2022/11/01 05:52:25;;;;;;;4.17;3.37;;;13.10;50.70;;;;;;10513866;28;20718;-71
2022/11/01 05:57:28;;;;;;;15.67;3.63;;;13.10;50.90;;;;;;10512403;28;20219;-71
2022/11/01 06:02:35;;;;;;;22.13;3.53;;;13.10;50.80;;;;;;10511795;28;20228;-71
2022/11/01 06:07:40;;;;;;;31.77;4.00;;;13.00;50.30;;;;;;10510615;28;20221;-71
2022/11/01 06:12:43;;;;;;;4.73;4.43;;;12.90;50.10;;;;;;10510338;28;20227;-71
2022/11/01 06:17:46;;;;;;;3.87;3.67;;;12.90;50.80;;;;;;10510108;28;20245;-71
2022/11/01 06:22:50;;;;;;;6.43;3.40;;;12.80;51.00;;;;;;10508220;28;20285;-71
2022/11/01 06:27:54;;;;;;;4.20;3.90;;;12.90;51.30;;;;;;10504815;28;20235;-71
2022/11/01 06:33:00;;;;;;;20.63;4.03;;;12.90;50.80;;;;;;10504445;28;20231;-71
2022/11/01 06:38:07;;;;;;;8.30;4.37;;;12.90;50.70;;;;;;10510462;28;20252;-71
2022/11/01 06:43:10;;;;;;;14.50;3.80;;;12.90;50.60;;;;;;10509802;28;20224;-71
2022/11/01 06:48:13;;;;;;;6.00;3.67;;;12.90;50.50;;;;;;10505772;28;20287;-71
2022/11/01 06:53:17;;;;;;;4.50;4.20;;;12.80;50.60;;;;;;10508591;28;20233;-71
2022/11/01 06:58:20;;;;;;;4.00;3.70;;;12.90;51.00;;;;;;10506851;28;20236;-71
2022/11/01 07:03:24;;;;;;;3.97;3.67;;;12.90;51.00;;;;;;10507795;28;20235;-71
2022/11/01 07:08:28;;;;;;;3.53;3.33;;;12.90;50.90;;;;;;10510672;28;20733;-71
2022/11/01 07:13:32;;;;;;;4.23;3.93;;;12.90;51.20;;;;;;10503979;28;20571;-71
2022/11/01 07:18:35;;;;;;;3.93;3.67;;;13.00;51.40;;;;;;10504584;28;20588;-71
2022/11/01 07:23:40;;;;;;;3.57;3.37;;;13.00;51.50;;;;;;10501004;28;20235;-71
2022/11/01 07:28:43;;;;;;;3.90;3.60;;;13.10;51.70;;;;;;10506027;28;20285;-71
2022/11/01 07:33:46;;;;;;;3.77;3.50;;;13.20;51.70;;;;;;10506450;28;20323;-71
2022/11/01 07:38:50;;;;;;;4.83;4.43;;;13.30;51.80;;;;;;10507058;28;20224;-71
2022/11/01 07:43:54;;;;;;;4.60;4.30;;;13.30;51.60;;;;;;10509044;28;20235;-71
2022/11/01 07:48:59;;;;;;;5.33;4.83;;;13.30;51.60;;;;;;10510631;28;20285;-71
2022/11/01 07:54:03;;;;;;;4.63;4.33;;;13.40;51.90;;;;;;10507177;28;20281;-71
2022/11/01 07:59:08;;;;;;;5.83;4.87;;;13.40;52.20;;;;;;10503964;28;20227;-71
2022/11/01 08:04:11;;;;;;;5.40;4.77;;;13.50;52.80;;;;;;10501192;28;20317;-71
2022/11/01 08:09:16;;;;;;;5.17;4.77;;;13.50;52.90;;;;;;10503425;28;20717;-71
2022/11/01 08:14:19;;;;;;;5.07;4.57;;;13.70;53.70;;;;;;10503581;28;20652;-71
2022/11/01 08:19:22;;;;;;;5.10;4.60;;;13.80;53.60;;;;;;10503475;28;20240;-71
2022/11/01 08:24:27;;;;;;;5.73;5.23;;;14.00;53.80;;;;;;10503222;28;20232;-71
2022/11/01 08:29:30;;;;;;;5.73;5.30;;;14.10;54.00;;;;;;10501681;28;20232;-71
2022/11/01 08:34:33;;;;;;;6.43;5.90;;;14.30;53.80;;;;;;10508981;28;20236;-71
2022/11/01 08:39:37;;;;;;;5.90;5.40;;;14.40;54.00;;;;;;10499806;28;20253;-71
2022/11/01 08:44:41;;;;;;;6.03;5.53;;;14.50;54.30;;;;;;10502269;28;20228;-71
2022/11/01 08:49:44;;;;;;;5.80;5.20;;;14.60;54.10;;;;;;10502388;28;20239;-71
2022/11/01 08:54:49;;;;;;;6.63;6.00;;;14.80;54.30;;;;;;10499281;28;20309;-71
2022/11/01 08:59:52;;;;;;;6.23;5.73;;;15.00;55.00;;;;;;10495027;28;20235;-71
2022/11/01 09:04:55;;;;;;;7.17;6.53;;;15.10;54.40;;;;;;10505201;28;20234;-71
2022/11/01 09:09:59;;;;;;;7.23;6.50;;;15.30;54.50;;;;;;10497617;28;20286;-71
2022/11/01 09:15:02;;;;;;;7.23;6.63;;;15.50;54.90;;;;;;10496870;28;20243;-71
2022/11/01 09:20:08;;;;;;;7.23;6.53;;;15.60;54.60;;;;;;10496658;28;20780;-71
2022/11/01 09:25:12;;;;;;;6.67;6.07;;;15.80;54.90;;;;;;10503605;28;20228;-71
2022/11/01 09:30:16;;;;;;;7.70;6.07;;;16.00;54.80;;;;;;10504225;28;20239;-71
2022/11/01 09:35:19;;;;;;;8.03;6.43;;;16.10;54.70;;;;;;10501382;28;20248;-71
2022/11/01 09:40:23;;;;;;;6.47;5.87;;;16.30;54.40;;;;;;10504036;28;20244;-71
2022/11/01 09:45:29;;;;;;;7.50;6.60;;;16.40;54.60;;;;;;10455363;28;1294479;-71
2022/11/01 09:50:36;;;;;;;7.17;6.47;;;16.50;54.40;;;;;;10509395;28;20766;-71
2022/11/01 09:55:48;;;;;;;6.50;6.00;;;16.60;54.10;;;;;;10512531;28;20366;-71
2022/11/01 10:01:00;;;;;;;6.83;6.13;;;16.70;54.20;;;;;;10509315;28;20233;-71
2022/11/01 10:06:12;;;;;;;7.77;6.07;;;16.70;54.10;;;;;;10508398;28;20281;-71
2022/11/01 10:11:38;;;;;;;7.07;6.37;;;16.90;54.40;;;;;;10509472;28;20231;-71
2022/11/01 10:16:47;;;;;;;7.50;6.80;;;16.90;54.40;;;;;;10509492;28;20840;-71
2022/11/01 10:21:53;;;;;;;7.47;6.77;;;17.00;54.30;;;;;;10510641;28;20236;-71
2022/11/01 10:27:18;;;;;;;7.27;6.03;;;17.10;54.40;;;;;;10504905;28;20220;-71
2022/11/01 10:32:30;;;;;;;7.87;7.17;;;17.20;54.70;;;;;;10512716;28;20234;-71
2022/11/01 10:37:40;;;;;;;7.43;6.40;;;17.30;54.00;;;;;;10510925;28;20227;-71
2022/11/01 10:43:13;;;;;;;7.53;6.60;;;17.30;53.80;;;;;;10507079;28;20992;-71
2022/11/01 10:48:26;;;;;;;7.13;6.43;;;17.40;53.70;;;;;;10513627;28;21135;-71
2022/11/01 10:53:32;;;;;;;7.67;6.87;;;17.50;53.90;;;;;;10507938;28;20740;-71
2022/11/01 10:58:41;;;;;;;7.73;6.47;;;17.60;53.70;;;;;;10509015;28;20227;-71
2022/11/01 11:03:45;;;;;;;8.87;6.30;;;17.60;53.90;;;;;;10506730;28;20223;-71
2022/11/01 11:08:51;;;;;;;7.37;6.47;;;17.70;53.90;;;;;;10507455;28;20234;-71
2022/11/01 11:13:57;;;;;;;6.80;6.27;;;17.70;54.10;;;;;;10506180;28;20371;-71
2022/11/01 11:19:02;;;;;;;6.83;6.13;;;17.80;54.00;;;;;;10507327;28;20706;-71
2022/11/01 11:24:05;;;;;;;6.60;6.00;;;17.90;54.20;;;;;;10510856;28;20236;-71
2022/11/01 11:29:35;;;;;;;7.37;6.57;;;18.00;53.90;;;;;;10507726;28;20278;-71
2022/11/01 11:34:38;;;;;;;7.20;6.50;;;18.10;53.80;;;;;;10504050;28;20235;-71
2022/11/01 11:39:58;;;;;;;7.83;6.53;;;18.20;53.90;;;;;;10509813;28;20693;-71
2022/11/01 11:45:28;;;;;;;7.47;6.60;;;18.30;53.80;;;;;;10506658;28;21159;-71
2022/11/01 11:50:33;;;;;;;8.07;7.00;;;18.40;53.30;;;;;;10483097;28;20238;-71
2022/11/01 11:55:42;;;;;;;9.53;6.80;;;18.40;53.20;;;;;;10504767;28;20269;-71
2022/11/01 12:00:52;;;;;;;6.97;6.27;;;18.50;53.00;;;;;;10507574;28;20228;-71
2022/11/01 12:05:58;;;;;;;7.43;6.43;;;18.60;53.00;;;;;;10510732;28;20713;-71
2022/11/01 12:11:02;;;;;;;7.40;6.10;;;18.70;53.00;;;;;;10504272;28;20246;-71
2022/11/01 12:16:18;;;;;;;7.33;6.20;;;18.80;53.20;;;;;;10501467;28;20261;-71
2022/11/01 12:21:26;;;;;;;7.60;6.60;;;18.90;52.80;;;;;;10502715;28;20251;-71
2022/11/01 12:26:31;;;;;;;6.93;6.30;;;19.00;52.80;;;;;;10496816;28;20232;-71
2022/11/01 12:31:36;;;;;;;6.37;5.70;;;19.10;52.90;;;;;;10505139;28;20236;-71
2022/11/01 12:36:45;;;;;;;7.00;6.30;;;19.10;52.60;;;;;;10509090;28;20297;-71
2022/11/01 12:41:52;;;;;;;6.97;4.93;;;19.20;52.60;;;;;;10505610;28;20576;-71
2022/11/01 12:47:04;;;;;;;7.13;6.47;;;19.30;51.90;;;;;;10500268;28;20278;-71
2022/11/01 12:52:15;;;;;;;5.87;4.97;;;19.40;51.90;;;;;;10501126;28;20285;-71
2022/11/01 12:57:18;;;;;;;6.23;5.03;;;19.40;51.50;;;;;;10506570;28;20708;-71
2022/11/01 13:02:46;;;;;;;6.57;4.73;;;19.50;51.70;;;;;;10503056;28;20243;-71
2022/11/01 13:08:00;;;;;;;7.70;4.53;;;19.60;51.20;;;;;;10502560;28;20231;-71
2022/11/01 13:13:14;;;;;;;7.37;4.77;;;19.60;51.10;;;;;;10504320;28;20278;-71
2022/11/01 13:18:32;;;;;;;7.00;5.07;;;19.70;50.60;;;;;;10502996;28;20232;-71
2022/11/01 13:23:37;;;;;;;4.83;4.43;;;19.70;50.30;;;;;;10508230;28;20534;-71
2022/11/01 13:29:02;;;;;;;6.50;4.90;;;19.80;51.30;;;;;;10512057;28;20225;-71
2022/11/01 13:34:28;;;;;;;6.03;5.10;;;19.80;49.90;;;;;;10505731;28;20265;-71
2022/11/01 13:39:43;;;;;;;6.87;5.87;;;19.90;49.60;;;;;;10514091;28;20604;-71
2022/11/01 13:44:50;;;;;;;9.23;5.90;;;19.90;49.80;;;;;;10510688;28;20234;-71
2022/11/01 13:50:21;;;;;;;5.50;5.00;;;19.90;50.10;;;;;;10508493;28;20262;-71
2022/11/01 13:55:35;;;;;;;6.43;5.63;;;19.90;49.90;;;;;;10511784;28;20230;-71
2022/11/01 14:00:41;;;;;;;7.17;5.77;;;20.00;49.40;;;;;;10508466;28;20230;-71
2022/11/01 14:05:47;;;;;;;8.20;6.63;;;20.00;49.80;;;;;;10507552;28;20235;-71
2022/11/01 14:10:51;;;;;;;5.57;4.97;;;20.00;49.50;;;;;;10508641;28;20660;-71
2022/11/01 14:16:03;;;;;;;7.47;5.13;;;20.00;49.90;;;;;;10504307;28;20861;-71
2022/11/01 14:21:27;;;;;;;4.73;4.27;;;20.00;49.10;;;;;;10509972;28;20281;-71
2022/11/01 14:26:48;;;;;;;8.80;5.63;;;20.00;48.70;;;;;;10510779;28;20617;-71
2022/11/01 14:31:52;;;;;;;6.30;5.33;;;20.00;48.70;;;;;;10510822;28;20770;-71
2022/11/01 14:37:00;;;;;;;10.50;9.27;;;20.00;49.20;;;;;;10506482;28;20297;-71
2022/11/01 14:42:09;;;;;;;13.27;9.60;;;20.00;48.70;;;;;;10511771;28;20230;-71
2022/11/01 14:47:25;;;;;;;11.80;10.57;;;20.00;49.30;;;;;;10510642;28;20290;-71
2022/11/01 14:52:36;;;;;;;15.33;11.77;;;20.00;48.80;;;;;;10512203;28;20226;-71
2022/11/01 14:57:39;;;;;;;12.73;9.63;;;20.00;48.70;;;;;;10506644;28;20219;-71
2022/11/01 15:02:43;;;;;;;8.73;7.30;;;20.00;49.70;;;;;;10505132;28;20232;-71
2022/11/01 15:07:52;;;;;;;9.37;7.07;;;20.00;49.50;;;;;;10508560;28;20219;-71
2022/11/01 15:12:58;;;;;;;12.57;10.07;;;20.00;48.70;;;;;;10504385;28;20232;-71
2022/11/01 15:18:04;;;;;;;9.50;8.43;;;20.00;48.80;;;;;;10504185;28;20236;-71
2022/11/01 15:23:11;;;;;;;10.97;8.87;;;19.90;49.30;;;;;;10503194;28;20658;-71
2022/11/01 15:28:21;;;;;;;8.47;7.47;;;19.90;49.20;;;;;;10504400;28;20224;-71
2022/11/01 15:33:29;;;;;;;8.27;6.80;;;19.80;49.10;;;;;;10500018;28;20231;-71
2022/11/01 15:38:48;;;;;;;8.43;6.67;;;19.80;49.50;;;;;;10506084;28;20697;-71
2022/11/01 15:43:52;;;;;;;8.57;7.43;;;19.80;49.50;;;;;;10506305;28;20228;-71
2022/11/01 15:48:58;;;;;;;14.37;13.07;;;19.70;49.70;;;;;;10505435;28;20220;-71
2022/11/01 15:54:06;;;;;;;15.50;11.73;;;19.70;49.60;;;;;;10507716;28;20228;-71
2022/11/01 15:59:18;;;;;;;10.47;9.47;;;19.60;49.50;;;;;;10500359;28;20235;-71
2022/11/01 16:04:23;;;;;;;7.10;6.40;;;19.60;49.40;;;;;;10504028;28;20240;-71
2022/11/01 16:09:37;;;;;;;6.47;5.87;;;19.60;49.60;;;;;;10504872;28;20709;-71
2022/11/01 16:14:40;;;;;;;5.60;5.00;;;19.50;49.50;;;;;;10502330;28;20239;-71
2022/11/01 16:19:47;;;;;;;5.30;4.67;;;19.40;49.60;;;;;;10505054;28;20231;-71
2022/11/01 16:25:01;;;;;;;5.67;4.57;;;19.40;49.80;;;;;;10502517;28;20639;-71
2022/11/01 16:30:09;;;;;;;12.33;11.00;;;19.30;49.70;;;;;;10504261;28;20220;-71
2022/11/01 16:35:30;;;;;;;8.73;7.87;;;19.30;49.70;;;;;;10507049;28;20274;-71
2022/11/01 16:40:35;;;;;;;5.83;5.23;;;19.30;49.60;;;;;;10506574;28;20228;-71
2022/11/01 16:45:40;;;;;;;5.50;5.00;;;19.20;49.60;;;;;;10501840;28;20881;-71
2022/11/01 16:50:44;;;;;;;6.40;5.30;;;19.10;49.50;;;;;;10504192;28;20748;-71
2022/11/01 16:55:48;;;;;;;7.93;6.13;;;19.10;49.50;;;;;;10501175;28;20235;-71
2022/11/01 17:00:53;;;;;;;8.77;6.23;;;19.00;49.30;;;;;;10501047;28;20277;-71
2022/11/01 17:05:57;;;;;;;7.20;6.33;;;19.00;49.30;;;;;;10504084;28;20224;-71
2022/11/01 17:11:01;;;;;;;9.20;7.03;;;18.90;49.40;;;;;;10505040;28;20236;-71
2022/11/01 17:16:06;;;;;;;8.93;7.43;;;18.80;49.30;;;;;;10503368;28;20262;-71
2022/11/01 17:21:10;;;;;;;8.53;7.73;;;18.80;49.50;;;;;;10506350;28;20309;-71
2022/11/01 17:26:17;;;;;;;8.93;8.03;;;18.80;49.60;;;;;;10499771;28;20277;-71
2022/11/01 17:31:20;;;;;;;8.10;7.33;;;18.70;49.30;;;;;;10500889;28;20239;-71
2022/11/01 17:36:23;;;;;;;7.43;6.73;;;18.70;49.40;;;;;;10508864;28;20231;-71
2022/11/01 17:41:27;;;;;;;7.17;6.43;;;18.70;49.40;;;;;;10502664;28;20220;-71
2022/11/01 17:46:30;;;;;;;7.70;6.87;;;18.60;49.30;;;;;;10502028;28;20718;-71
2022/11/01 17:51:34;;;;;;;7.33;6.37;;;18.50;49.30;;;;;;10501169;28;20228;-71
2022/11/01 17:56:38;;;;;;;7.30;6.60;;;18.50;49.60;;;;;;10507039;28;20639;-71
2022/11/01 18:01:44;;;;;;;7.93;6.37;;;18.40;49.70;;;;;;10507302;28;20228;-71
2022/11/01 18:06:47;;;;;;;15.37;12.50;;;18.40;49.70;;;;;;10503872;28;20227;-71
2022/11/01 18:12:00;;;;;;;10.77;8.90;;;18.40;49.70;;;;;;10505050;28;20227;-71
2022/11/01 18:17:17;;;;;;;9.17;8.23;;;18.30;49.60;;;;;;10508258;28;20372;-71
2022/11/01 18:22:31;;;;;;;10.53;9.53;;;18.30;49.60;;;;;;10510010;28;20239;-71
2022/11/01 18:27:37;;;;;;;10.93;8.40;;;18.30;49.50;;;;;;10506060;28;20301;-71
2022/11/01 18:32:47;;;;;;;9.73;8.67;;;18.20;49.70;;;;;;10513305;28;20273;-71
2022/11/01 18:38:02;;;;;;;9.40;8.43;;;18.10;49.90;;;;;;10507991;28;20219;-71
2022/11/01 18:43:08;;;;;;;10.77;8.83;;;18.10;50.00;;;;;;10508032;28;20235;-71
2022/11/01 18:48:18;;;;;;;16.17;14.10;;;18.10;49.90;;;;;;10505995;28;20568;-71
2022/11/01 18:53:21;;;;;;;16.83;15.23;;;18.10;49.80;;;;;;10503689;28;20606;-71
2022/11/01 18:58:28;;;;;;;16.40;14.80;;;18.00;49.60;;;;;;10510059;28;20228;-71
2022/11/01 19:03:32;;;;;;;13.53;12.23;;;18.00;49.50;;;;;;10511150;28;20696;-71
2022/11/01 19:08:35;;;;;;;12.37;11.27;;;18.00;49.40;;;;;;10504571;28;20724;-71
2022/11/01 19:13:40;;;;;;;9.60;8.70;;;17.90;49.20;;;;;;10507791;28;20732;-71
2022/11/01 19:18:44;;;;;;;10.60;9.53;;;17.90;49.20;;;;;;10505303;28;20231;-71
2022/11/01 19:23:49;;;;;;;9.03;8.23;;;17.80;48.90;;;;;;10509079;28;20239;-71
2022/11/01 19:28:54;;;;;;;8.13;7.43;;;17.80;48.60;;;;;;10507516;28;20710;-71
2022/11/01 19:34:02;;;;;;;8.77;7.87;;;17.70;48.40;;;;;;10512595;28;20243;-71
2022/11/01 19:39:21;;;;;;;8.33;7.63;;;17.70;48.20;;;;;;10506998;28;20235;-71
2022/11/01 19:44:26;;;;;;;9.83;7.57;;;17.60;48.00;;;;;;10506383;28;20281;-71
2022/11/01 19:49:30;;;;;;;8.33;6.63;;;17.50;47.80;;;;;;10506207;28;20224;-71
2022/11/01 19:54:35;;;;;;;8.27;7.07;;;17.40;47.80;;;;;;10506685;28;20240;-71
2022/11/01 19:59:40;;;;;;;8.70;7.77;;;17.30;47.80;;;;;;10506238;28;20228;-71
2022/11/01 20:04:43;;;;;;;9.10;8.20;;;17.10;48.00;;;;;;10505072;28;20223;-71
2022/11/01 20:09:47;;;;;;;9.47;8.47;;;16.90;48.20;;;;;;10505124;28;20224;-71
2022/11/01 20:14:52;;;;;;;12.83;10.00;;;16.80;48.50;;;;;;10509383;28;20223;-71
2022/11/01 20:19:55;;;;;;;11.40;9.07;;;16.80;48.40;;;;;;10503970;28;20232;-71
2022/11/01 20:24:59;;;;;;;10.70;9.60;;;16.70;48.40;;;;;;10506746;28;20228;-71
2022/11/01 20:30:04;;;;;;;14.47;10.17;;;16.60;48.40;;;;;;10506567;28;20236;-71
2022/11/01 20:35:09;;;;;;;12.07;10.87;;;16.60;48.60;;;;;;10500370;28;20256;-71
2022/11/01 20:40:13;;;;;;;10.80;9.20;;;16.50;48.40;;;;;;10502789;28;20880;-71
2022/11/01 20:45:17;;;;;;;9.83;8.47;;;16.50;48.40;;;;;;10505745;28;20234;-71
2022/11/01 20:50:20;;;;;;;11.03;9.07;;;16.50;48.20;;;;;;10501867;28;20236;-71
2022/11/01 20:55:23;;;;;;;8.53;7.60;;;16.50;48.10;;;;;;10506422;28;20227;-71
2022/11/01 21:00:28;;;;;;;7.20;6.50;;;16.50;48.00;;;;;;10502135;28;20221;-71
2022/11/01 21:05:35;;;;;;;9.20;7.93;;;16.40;48.60;;;;;;10503625;28;20298;-71
2022/11/01 21:10:39;;;;;;;9.33;8.43;;;16.40;47.90;;;;;;10505620;28;20245;-71
2022/11/01 21:15:45;;;;;;;10.40;9.30;;;16.30;47.70;;;;;;10506061;28;20298;-71
2022/11/01 21:20:49;;;;;;;10.10;8.87;;;16.30;47.70;;;;;;10501386;28;20655;-71
2022/11/01 21:25:56;;;;;;;8.50;7.70;;;16.30;47.90;;;;;;10501550;28;20236;-71
2022/11/01 21:31:17;;;;;;;8.50;7.70;;;16.20;47.90;;;;;;10506317;28;20224;-71
2022/11/01 21:36:29;;;;;;;8.83;7.80;;;16.20;47.70;;;;;;10498566;28;20232;-71
2022/11/01 21:41:37;;;;;;;8.27;6.50;;;16.20;47.90;;;;;;10503138;28;20616;-71
2022/11/01 21:46:46;;;;;;;6.63;5.93;;;16.20;48.10;;;;;;10508109;28;20232;-71
2022/11/01 21:51:49;;;;;;;6.47;5.50;;;16.10;48.20;;;;;;10510278;28;20231;-71
2022/11/01 21:56:52;;;;;;;5.23;4.73;;;16.00;48.20;;;;;;10515752;28;20224;-71
2022/11/01 22:01:59;;;;;;;7.83;4.80;;;16.00;48.20;;;;;;10511987;28;20600;-71
2022/11/01 22:07:06;;;;;;;7.43;5.30;;;16.00;48.00;;;;;;10507310;28;20227;-71
2022/11/01 22:12:09;;;;;;;7.23;5.37;;;15.90;47.90;;;;;;10508673;28;20606;-71
2022/11/01 22:17:14;;;;;;;5.37;4.50;;;15.90;48.10;;;;;;10511633;28;20718;-71
2022/11/01 22:22:17;;;;;;;6.13;4.80;;;15.80;48.70;;;;;;10505958;28;20633;-71
2022/11/01 22:27:20;;;;;;;6.33;5.60;;;15.80;48.00;;;;;;10498898;28;20237;-71
2022/11/01 22:32:25;;;;;;;6.33;5.73;;;15.70;47.70;;;;;;10511499;28;20235;-71
2022/11/01 22:37:30;;;;;;;9.17;8.30;;;15.70;47.50;;;;;;10505311;28;20273;-71
2022/11/01 22:42:33;;;;;;;11.10;10.03;;;15.70;47.40;;;;;;10510059;28;20714;-71
2022/11/01 22:47:37;;;;;;;10.90;9.80;;;15.60;47.50;;;;;;10504956;28;20227;-71
2022/11/01 22:52:44;;;;;;;8.90;8.00;;;15.60;48.10;;;;;;10514847;28;20294;-71
2022/11/01 22:57:49;;;;;;;9.40;7.43;;;15.50;47.10;;;;;;10509781;28;20254;-71
2022/11/01 23:02:58;;;;;;;8.20;7.27;;;15.50;47.10;;;;;;10509139;28;20232;-71
2022/11/01 23:08:13;;;;;;;6.90;6.20;;;15.40;46.80;;;;;;10515707;28;20227;-71
2022/11/01 23:18:44;;;;;;;5.90;5.40;;;15.30;47.00;;;;;;10507732;28;20232;-71
2022/11/01 23:23:48;;;;;;;5.80;5.20;;;15.20;47.20;;;;;;10504651;28;20333;-71
2022/11/01 23:28:54;;;;;;;5.50;5.00;;;15.20;47.20;;;;;;10503398;28;21207;-71
2022/11/01 23:33:58;;;;;;;6.10;5.50;;;15.10;47.00;;;;;;10506758;28;20239;-71
2022/11/01 23:39:04;;;;;;;6.03;5.27;;;15.10;47.10;;;;;;10514338;28;20220;-71
2022/11/01 23:44:14;;;;;;;5.23;4.73;;;15.10;46.90;;;;;;10505505;28;20236;-71
2022/11/01 23:49:22;;;;;;;6.43;4.90;;;15.00;46.80;;;;;;10510540;28;20235;-71
2022/11/01 23:54:32;;;;;;;5.40;4.90;;;14.90;46.80;;;;;;10502053;28;20236;-71
2022/11/01 23:59:36;;;;;;;5.33;4.60;;;14.80;46.70;;;;;;10507142;28;20229;-71
